sensor_id;sensor_type;location;lat;lon;timestamp;temperature;humidity
39621;DHT22;25309;48.686;9.170;2023-11-19T00:01:55;7.70;99.90
39621;DHT22;25309;48.686;9.170;2023-11-19T00:04:24;7.80;99.90
39621;DHT22;25309;48.686;9.170;2023-11-19T00:06:51;7.80;99.90
39621;DHT22;25309;48.686;9.170;2023-11-19T00:09:18;7.80;99.90
39621;DHT22;25309;48.686;9.170;2023-11-19T00:11:45;7.90;99.90
39621;DHT22;25309;48.686;9.170;2023-11-19T00:14:21;7.90;99.90
39621;DHT22;25309;48.686;9.170;2023-11-19T00:16:49;8.00;99.90
39621;DHT22;25309;48.686;9.170;2023-11-19T00:19:17;8.00;99.90
39621;DHT22;25309;48.686;9.170;2023-11-19T00:21:45;8.00;99.90
39621;DHT22;25309;48.686;9.170;2023-11-19T00:24:12;8.00;99.90
39621;DHT22;25309;48.686;9.170;2023-11-19T00:26:39;8.00;99.90
39621;DHT22;25309;48.686;9.170;2023-11-19T00:29:06;8.00;99.90
39621;DHT22;25309;48.686;9.170;2023-11-19T00:31:35;8.10;99.90
39621;DHT22;25309;48.686;9.170;2023-11-19T00:34:02;8.10;99.90
39621;DHT22;25309;48.686;9.170;2023-11-19T00:36:29;8.20;99.90
39621;DHT22;25309;48.686;9.170;2023-11-19T00:38:56;8.20;99.90
39621;DHT22;25309;48.686;9.170;2023-11-19T00:41:23;8.20;99.90
39621;DHT22;25309;48.686;9.170;2023-11-19T00:43:50;8.20;99.90
39621;DHT22;25309;48.686;9.170;2023-11-19T00:46:17;8.20;99.90
39621;DHT22;25309;48.686;9.170;2023-11-19T00:48:46;8.30;99.90
39621;DHT22;25309;48.686;9.170;2023-11-19T00:51:14;8.30;99.90
39621;DHT22;25309;48.686;9.170;2023-11-19T00:53:41;8.30;99.90
39621;DHT22;25309;48.686;9.170;2023-11-19T00:56:08;8.30;99.90
39621;DHT22;25309;48.686;9.170;2023-11-19T00:58:35;8.40;99.90
39621;DHT22;25309;48.686;9.170;2023-11-19T01:01:03;8.40;99.90
39621;DHT22;25309;48.686;9.170;2023-11-19T01:03:32;8.40;99.90
39621;DHT22;25309;48.686;9.170;2023-11-19T01:06:01;8.50;99.90
39621;DHT22;25309;48.686;9.170;2023-11-19T01:08:29;8.50;99.90
39621;DHT22;25309;48.686;9.170;2023-11-19T01:10:56;8.50;99.90
39621;DHT22;25309;48.686;9.170;2023-11-19T01:13:23;8.50;99.90
39621;DHT22;25309;48.686;9.170;2023-11-19T01:15:51;8.60;99.90
39621;DHT22;25309;48.686;9.170;2023-11-19T01:18:18;8.60;99.90
39621;DHT22;25309;48.686;9.170;2023-11-19T01:20:46;8.60;99.90
39621;DHT22;25309;48.686;9.170;2023-11-19T01:23:14;8.60;99.90
39621;DHT22;25309;48.686;9.170;2023-11-19T01:25:41;8.60;99.90
39621;DHT22;25309;48.686;9.170;2023-11-19T01:28:08;8.60;99.90
39621;DHT22;25309;48.686;9.170;2023-11-19T01:30:35;8.70;99.90
39621;DHT22;25309;48.686;9.170;2023-11-19T01:33:02;8.70;99.90
39621;DHT22;25309;48.686;9.170;2023-11-19T01:35:29;8.70;99.90
39621;DHT22;25309;48.686;9.170;2023-11-19T01:37:56;8.70;99.90
39621;DHT22;25309;48.686;9.170;2023-11-19T01:40:24;8.70;99.90
39621;DHT22;25309;48.686;9.170;2023-11-19T01:42:51;8.80;99.90
39621;DHT22;25309;48.686;9.170;2023-11-19T01:45:26;8.80;99.90
39621;DHT22;25309;48.686;9.170;2023-11-19T01:47:54;8.80;99.90
39621;DHT22;25309;48.686;9.170;2023-11-19T01:50:21;8.90;99.90
39621;DHT22;25309;48.686;9.170;2023-11-19T01:52:48;8.90;99.90
39621;DHT22;25309;48.686;9.170;2023-11-19T01:55:15;8.90;99.90
39621;DHT22;25309;48.686;9.170;2023-11-19T01:57:44;9.00;99.90
39621;DHT22;25309;48.686;9.170;2023-11-19T02:00:12;9.00;99.90
39621;DHT22;25309;48.686;9.170;2023-11-19T02:02:43;9.00;99.90
39621;DHT22;25309;48.686;9.170;2023-11-19T02:05:12;9.00;99.90
39621;DHT22;25309;48.686;9.170;2023-11-19T02:07:40;9.10;99.90
39621;DHT22;25309;48.686;9.170;2023-11-19T02:10:08;9.10;99.90
39621;DHT22;25309;48.686;9.170;2023-11-19T02:12:40;9.20;99.90
39621;DHT22;25309;48.686;9.170;2023-11-19T02:15:11;9.20;99.90
39621;DHT22;25309;48.686;9.170;2023-11-19T02:17:38;9.20;99.90
39621;DHT22;25309;48.686;9.170;2023-11-19T02:20:07;9.30;99.90
39621;DHT22;25309;48.686;9.170;2023-11-19T02:22:39;9.30;99.90
39621;DHT22;25309;48.686;9.170;2023-11-19T02:25:07;9.40;99.90
39621;DHT22;25309;48.686;9.170;2023-11-19T02:27:49;9.40;99.90
39621;DHT22;25309;48.686;9.170;2023-11-19T02:30:18;9.40;99.90
39621;DHT22;25309;48.686;9.170;2023-11-19T02:32:45;9.40;99.90
39621;DHT22;25309;48.686;9.170;2023-11-19T02:35:13;9.40;99.90
39621;DHT22;25309;48.686;9.170;2023-11-19T02:37:40;9.50;99.90
39621;DHT22;25309;48.686;9.170;2023-11-19T02:40:08;9.50;99.90
39621;DHT22;25309;48.686;9.170;2023-11-19T02:42:36;9.50;99.90
39621;DHT22;25309;48.686;9.170;2023-11-19T02:45:06;9.60;99.90
39621;DHT22;25309;48.686;9.170;2023-11-19T02:47:34;9.60;99.90
39621;DHT22;25309;48.686;9.170;2023-11-19T02:50:01;9.60;99.90
39621;DHT22;25309;48.686;9.170;2023-11-19T02:52:28;9.60;99.90
39621;DHT22;25309;48.686;9.170;2023-11-19T02:54:55;9.60;99.90
39621;DHT22;25309;48.686;9.170;2023-11-19T02:57:22;9.60;99.90
39621;DHT22;25309;48.686;9.170;2023-11-19T02:59:49;9.70;99.90
39621;DHT22;25309;48.686;9.170;2023-11-19T03:02:18;9.70;99.90
39621;DHT22;25309;48.686;9.170;2023-11-19T03:04:45;9.70;99.90
39621;DHT22;25309;48.686;9.170;2023-11-19T03:07:12;9.70;99.90
39621;DHT22;25309;48.686;9.170;2023-11-19T03:09:40;9.70;99.90
39621;DHT22;25309;48.686;9.170;2023-11-19T03:12:08;9.70;99.90
39621;DHT22;25309;48.686;9.170;2023-11-19T03:14:35;9.70;99.90
39621;DHT22;25309;48.686;9.170;2023-11-19T03:17:02;9.80;99.90
39621;DHT22;25309;48.686;9.170;2023-11-19T03:19:31;9.80;99.90
39621;DHT22;25309;48.686;9.170;2023-11-19T03:22:01;9.80;99.90
39621;DHT22;25309;48.686;9.170;2023-11-19T03:24:28;9.80;99.90
39621;DHT22;25309;48.686;9.170;2023-11-19T03:26:55;9.80;99.90
39621;DHT22;25309;48.686;9.170;2023-11-19T03:29:22;9.80;99.90
39621;DHT22;25309;48.686;9.170;2023-11-19T03:31:49;9.80;99.90
39621;DHT22;25309;48.686;9.170;2023-11-19T03:34:17;9.90;99.90
39621;DHT22;25309;48.686;9.170;2023-11-19T03:36:45;9.90;99.90
39621;DHT22;25309;48.686;9.170;2023-11-19T03:39:12;9.90;99.90
39621;DHT22;25309;48.686;9.170;2023-11-19T03:41:39;10.00;99.90
39621;DHT22;25309;48.686;9.170;2023-11-19T03:44:08;10.00;99.90
39621;DHT22;25309;48.686;9.170;2023-11-19T03:46:35;10.00;99.90
39621;DHT22;25309;48.686;9.170;2023-11-19T03:49:03;10.00;99.90
39621;DHT22;25309;48.686;9.170;2023-11-19T03:51:33;10.00;99.90
39621;DHT22;25309;48.686;9.170;2023-11-19T03:54:03;10.00;99.90
39621;DHT22;25309;48.686;9.170;2023-11-19T03:56:30;10.00;99.90
39621;DHT22;25309;48.686;9.170;2023-11-19T03:58:57;10.00;99.90
39621;DHT22;25309;48.686;9.170;2023-11-19T04:01:24;10.00;99.90
39621;DHT22;25309;48.686;9.170;2023-11-19T04:03:51;10.00;99.90
39621;DHT22;25309;48.686;9.170;2023-11-19T04:06:19;10.00;99.90
39621;DHT22;25309;48.686;9.170;2023-11-19T04:08:45;10.00;99.90
39621;DHT22;25309;48.686;9.170;2023-11-19T04:11:14;10.00;99.90
39621;DHT22;25309;48.686;9.170;2023-11-19T04:13:41;10.10;99.90
39621;DHT22;25309;48.686;9.170;2023-11-19T04:16:08;10.10;99.90
39621;DHT22;25309;48.686;9.170;2023-11-19T04:18:36;10.10;99.90
39621;DHT22;25309;48.686;9.170;2023-11-19T04:21:06;10.10;99.90
39621;DHT22;25309;48.686;9.170;2023-11-19T04:23:33;10.20;99.90
39621;DHT22;25309;48.686;9.170;2023-11-19T04:26:02;10.20;99.90
39621;DHT22;25309;48.686;9.170;2023-11-19T04:28:33;10.20;99.90
39621;DHT22;25309;48.686;9.170;2023-11-19T04:31:00;10.20;99.90
39621;DHT22;25309;48.686;9.170;2023-11-19T04:33:27;10.20;99.90
39621;DHT22;25309;48.686;9.170;2023-11-19T04:35:54;10.30;99.90
39621;DHT22;25309;48.686;9.170;2023-11-19T04:38:21;10.30;99.90
39621;DHT22;25309;48.686;9.170;2023-11-19T04:40:48;10.30;99.90
39621;DHT22;25309;48.686;9.170;2023-11-19T04:43:16;10.40;99.90
39621;DHT22;25309;48.686;9.170;2023-11-19T04:45:44;10.40;99.90
39621;DHT22;25309;48.686;9.170;2023-11-19T04:48:11;10.40;99.90
39621;DHT22;25309;48.686;9.170;2023-11-19T04:50:39;10.40;99.90
39621;DHT22;25309;48.686;9.170;2023-11-19T04:53:06;10.50;99.90
39621;DHT22;25309;48.686;9.170;2023-11-19T04:55:33;10.50;99.90
39621;DHT22;25309;48.686;9.170;2023-11-19T04:58:00;10.50;99.90
39621;DHT22;25309;48.686;9.170;2023-11-19T05:00:27;10.50;99.90
39621;DHT22;25309;48.686;9.170;2023-11-19T05:02:55;10.50;99.90
39621;DHT22;25309;48.686;9.170;2023-11-19T05:05:22;10.50;99.90
39621;DHT22;25309;48.686;9.170;2023-11-19T05:07:50;10.50;99.90
39621;DHT22;25309;48.686;9.170;2023-11-19T05:10:17;10.50;99.90
39621;DHT22;25309;48.686;9.170;2023-11-19T05:12:44;10.50;99.90
39621;DHT22;25309;48.686;9.170;2023-11-19T05:15:11;10.60;99.90
39621;DHT22;25309;48.686;9.170;2023-11-19T05:17:39;10.60;99.90
39621;DHT22;25309;48.686;9.170;2023-11-19T05:20:08;10.60;99.90
39621;DHT22;25309;48.686;9.170;2023-11-19T05:22:40;10.60;99.90
39621;DHT22;25309;48.686;9.170;2023-11-19T05:25:08;10.70;99.90
39621;DHT22;25309;48.686;9.170;2023-11-19T05:27:36;10.70;99.90
39621;DHT22;25309;48.686;9.170;2023-11-19T05:30:04;10.70;99.90
39621;DHT22;25309;48.686;9.170;2023-11-19T05:32:34;10.70;99.90
39621;DHT22;25309;48.686;9.170;2023-11-19T05:35:01;10.70;99.90
39621;DHT22;25309;48.686;9.170;2023-11-19T05:37:29;10.70;99.90
39621;DHT22;25309;48.686;9.170;2023-11-19T05:39:57;10.80;99.90
39621;DHT22;25309;48.686;9.170;2023-11-19T05:42:24;10.80;99.90
39621;DHT22;25309;48.686;9.170;2023-11-19T05:44:51;10.70;99.90
39621;DHT22;25309;48.686;9.170;2023-11-19T05:47:18;10.80;99.90
39621;DHT22;25309;48.686;9.170;2023-11-19T05:49:45;10.80;99.90
39621;DHT22;25309;48.686;9.170;2023-11-19T05:52:12;10.80;99.90
39621;DHT22;25309;48.686;9.170;2023-11-19T05:54:40;10.80;99.90
39621;DHT22;25309;48.686;9.170;2023-11-19T05:57:09;10.80;99.90
39621;DHT22;25309;48.686;9.170;2023-11-19T05:59:36;10.80;99.90
39621;DHT22;25309;48.686;9.170;2023-11-19T06:02:03;10.80;99.90
39621;DHT22;25309;48.686;9.170;2023-11-19T06:04:30;10.80;99.90
39621;DHT22;25309;48.686;9.170;2023-11-19T06:06:57;10.80;99.90
39621;DHT22;25309;48.686;9.170;2023-11-19T06:09:24;10.80;99.90
39621;DHT22;25309;48.686;9.170;2023-11-19T06:11:52;10.90;99.90
39621;DHT22;25309;48.686;9.170;2023-11-19T06:14:19;10.90;99.90
39621;DHT22;25309;48.686;9.170;2023-11-19T06:16:46;10.90;99.90
39621;DHT22;25309;48.686;9.170;2023-11-19T06:19:13;10.90;99.90
39621;DHT22;25309;48.686;9.170;2023-11-19T06:21:40;10.90;99.90
39621;DHT22;25309;48.686;9.170;2023-11-19T06:24:08;10.90;99.90
39621;DHT22;25309;48.686;9.170;2023-11-19T06:26:35;10.90;99.90
39621;DHT22;25309;48.686;9.170;2023-11-19T06:29:04;11.00;99.90
39621;DHT22;25309;48.686;9.170;2023-11-19T06:31:31;10.90;99.90
39621;DHT22;25309;48.686;9.170;2023-11-19T06:33:58;10.90;99.90
39621;DHT22;25309;48.686;9.170;2023-11-19T06:36:25;10.90;99.90
39621;DHT22;25309;48.686;9.170;2023-11-19T06:38:53;10.90;99.90
39621;DHT22;25309;48.686;9.170;2023-11-19T06:41:20;10.90;99.90
39621;DHT22;25309;48.686;9.170;2023-11-19T06:43:48;10.90;99.90
39621;DHT22;25309;48.686;9.170;2023-11-19T06:46:17;10.80;99.90
39621;DHT22;25309;48.686;9.170;2023-11-19T06:48:44;10.80;99.90
39621;DHT22;25309;48.686;9.170;2023-11-19T06:51:12;10.80;99.90
39621;DHT22;25309;48.686;9.170;2023-11-19T06:53:39;10.90;99.90
39621;DHT22;25309;48.686;9.170;2023-11-19T06:56:17;10.90;99.90
39621;DHT22;25309;48.686;9.170;2023-11-19T06:58:44;10.90;99.90
39621;DHT22;25309;48.686;9.170;2023-11-19T07:01:11;10.90;99.90
39621;DHT22;25309;48.686;9.170;2023-11-19T07:03:40;10.90;99.90
39621;DHT22;25309;48.686;9.170;2023-11-19T07:06:07;10.90;99.90
39621;DHT22;25309;48.686;9.170;2023-11-19T07:08:35;11.00;99.90
39621;DHT22;25309;48.686;9.170;2023-11-19T07:11:03;11.00;99.90
39621;DHT22;25309;48.686;9.170;2023-11-19T07:13:30;11.00;99.90
39621;DHT22;25309;48.686;9.170;2023-11-19T07:15:57;11.10;99.90
39621;DHT22;25309;48.686;9.170;2023-11-19T07:18:25;11.00;99.90
39621;DHT22;25309;48.686;9.170;2023-11-19T07:20:53;11.10;99.90
39621;DHT22;25309;48.686;9.170;2023-11-19T07:23:21;11.10;99.90
39621;DHT22;25309;48.686;9.170;2023-11-19T07:25:48;11.10;99.90
39621;DHT22;25309;48.686;9.170;2023-11-19T07:28:17;11.10;99.90
39621;DHT22;25309;48.686;9.170;2023-11-19T07:30:44;11.10;99.90
39621;DHT22;25309;48.686;9.170;2023-11-19T07:33:11;11.20;99.90
39621;DHT22;25309;48.686;9.170;2023-11-19T07:35:42;11.10;99.90
39621;DHT22;25309;48.686;9.170;2023-11-19T07:38:12;11.20;99.90
39621;DHT22;25309;48.686;9.170;2023-11-19T07:40:39;11.20;99.90
39621;DHT22;25309;48.686;9.170;2023-11-19T07:43:10;11.20;99.90
39621;DHT22;25309;48.686;9.170;2023-11-19T07:45:37;11.20;99.90
39621;DHT22;25309;48.686;9.170;2023-11-19T07:48:06;11.20;99.90
39621;DHT22;25309;48.686;9.170;2023-11-19T07:50:33;11.20;99.90
39621;DHT22;25309;48.686;9.170;2023-11-19T07:53:00;11.30;99.90
39621;DHT22;25309;48.686;9.170;2023-11-19T07:55:30;11.20;99.90
39621;DHT22;25309;48.686;9.170;2023-11-19T07:57:59;11.20;99.90
39621;DHT22;25309;48.686;9.170;2023-11-19T08:00:26;11.30;99.90
39621;DHT22;25309;48.686;9.170;2023-11-19T08:02:53;11.30;99.90
39621;DHT22;25309;48.686;9.170;2023-11-19T08:05:20;11.20;99.90
39621;DHT22;25309;48.686;9.170;2023-11-19T08:07:47;11.30;99.90
39621;DHT22;25309;48.686;9.170;2023-11-19T08:10:14;11.30;99.90
39621;DHT22;25309;48.686;9.170;2023-11-19T08:12:43;11.30;99.90
39621;DHT22;25309;48.686;9.170;2023-11-19T08:15:10;11.30;99.90
39621;DHT22;25309;48.686;9.170;2023-11-19T08:17:37;11.30;99.90
39621;DHT22;25309;48.686;9.170;2023-11-19T08:20:05;11.40;99.90
39621;DHT22;25309;48.686;9.170;2023-11-19T08:22:37;11.40;99.90
39621;DHT22;25309;48.686;9.170;2023-11-19T08:25:05;11.40;99.90
39621;DHT22;25309;48.686;9.170;2023-11-19T08:27:33;11.50;99.90
39621;DHT22;25309;48.686;9.170;2023-11-19T08:30:01;11.60;99.90
39621;DHT22;25309;48.686;9.170;2023-11-19T08:32:28;11.70;99.90
39621;DHT22;25309;48.686;9.170;2023-11-19T08:34:55;11.80;99.90
39621;DHT22;25309;48.686;9.170;2023-11-19T08:37:23;12.10;99.90
39621;DHT22;25309;48.686;9.170;2023-11-19T08:39:51;12.40;99.90
39621;DHT22;25309;48.686;9.170;2023-11-19T08:42:19;13.00;99.90
39621;DHT22;25309;48.686;9.170;2023-11-19T08:44:49;13.50;99.90
39621;DHT22;25309;48.686;9.170;2023-11-19T08:47:18;14.10;99.90
39621;DHT22;25309;48.686;9.170;2023-11-19T08:49:45;14.40;99.90
39621;DHT22;25309;48.686;9.170;2023-11-19T08:52:13;14.20;99.90
39621;DHT22;25309;48.686;9.170;2023-11-19T08:54:42;14.00;99.90
39621;DHT22;25309;48.686;9.170;2023-11-19T08:57:09;13.60;99.90
39621;DHT22;25309;48.686;9.170;2023-11-19T08:59:36;13.40;99.90
39621;DHT22;25309;48.686;9.170;2023-11-19T09:02:06;13.50;99.90
39621;DHT22;25309;48.686;9.170;2023-11-19T09:04:37;13.70;99.90
39621;DHT22;25309;48.686;9.170;2023-11-19T09:07:04;13.80;99.90
39621;DHT22;25309;48.686;9.170;2023-11-19T09:09:32;13.80;99.90
39621;DHT22;25309;48.686;9.170;2023-11-19T09:12:02;13.90;99.90
39621;DHT22;25309;48.686;9.170;2023-11-19T09:14:30;13.80;99.90
39621;DHT22;25309;48.686;9.170;2023-11-19T09:16:57;13.80;99.90
39621;DHT22;25309;48.686;9.170;2023-11-19T09:19:25;13.80;99.90
39621;DHT22;25309;48.686;9.170;2023-11-19T09:21:54;13.80;99.90
39621;DHT22;25309;48.686;9.170;2023-11-19T09:24:21;13.80;99.90
39621;DHT22;25309;48.686;9.170;2023-11-19T09:26:48;13.80;99.90
39621;DHT22;25309;48.686;9.170;2023-11-19T09:29:15;13.90;99.90
39621;DHT22;25309;48.686;9.170;2023-11-19T09:31:43;14.00;99.90
39621;DHT22;25309;48.686;9.170;2023-11-19T09:34:10;14.00;99.90
39621;DHT22;25309;48.686;9.170;2023-11-19T09:36:37;14.00;99.90
39621;DHT22;25309;48.686;9.170;2023-11-19T09:39:05;13.90;99.90
39621;DHT22;25309;48.686;9.170;2023-11-19T09:41:35;14.00;99.90
39621;DHT22;25309;48.686;9.170;2023-11-19T09:44:02;14.40;99.90
39621;DHT22;25309;48.686;9.170;2023-11-19T09:46:30;14.80;99.90
39621;DHT22;25309;48.686;9.170;2023-11-19T09:48:57;15.00;99.90
39621;DHT22;25309;48.686;9.170;2023-11-19T09:51:26;15.20;99.90
39621;DHT22;25309;48.686;9.170;2023-11-19T09:53:53;15.50;99.90
39621;DHT22;25309;48.686;9.170;2023-11-19T09:56:21;15.70;99.90
39621;DHT22;25309;48.686;9.170;2023-11-19T09:58:49;15.70;99.90
39621;DHT22;25309;48.686;9.170;2023-11-19T10:01:16;15.90;99.90
39621;DHT22;25309;48.686;9.170;2023-11-19T10:03:47;16.10;99.90
39621;DHT22;25309;48.686;9.170;2023-11-19T10:06:15;15.80;99.90
39621;DHT22;25309;48.686;9.170;2023-11-19T10:08:43;15.70;99.90
39621;DHT22;25309;48.686;9.170;2023-11-19T10:11:10;15.60;99.90
39621;DHT22;25309;48.686;9.170;2023-11-19T10:13:40;15.40;99.90
39621;DHT22;25309;48.686;9.170;2023-11-19T10:16:09;15.40;99.90
39621;DHT22;25309;48.686;9.170;2023-11-19T10:18:43;15.50;99.90
39621;DHT22;25309;48.686;9.170;2023-11-19T10:21:12;15.90;99.90
39621;DHT22;25309;48.686;9.170;2023-11-19T10:23:50;16.10;99.90
39621;DHT22;25309;48.686;9.170;2023-11-19T10:26:19;16.40;99.90
39621;DHT22;25309;48.686;9.170;2023-11-19T10:28:48;16.40;99.90
39621;DHT22;25309;48.686;9.170;2023-11-19T10:31:16;16.30;99.90
39621;DHT22;25309;48.686;9.170;2023-11-19T10:33:44;16.20;99.90
39621;DHT22;25309;48.686;9.170;2023-11-19T10:36:14;16.30;99.90
39621;DHT22;25309;48.686;9.170;2023-11-19T10:38:51;16.60;99.90
39621;DHT22;25309;48.686;9.170;2023-11-19T10:41:27;16.90;99.90
39621;DHT22;25309;48.686;9.170;2023-11-19T10:43:55;17.10;99.90
39621;DHT22;25309;48.686;9.170;2023-11-19T10:46:22;17.20;99.90
39621;DHT22;25309;48.686;9.170;2023-11-19T10:48:50;17.10;99.90
39621;DHT22;25309;48.686;9.170;2023-11-19T10:51:19;16.90;99.90
39621;DHT22;25309;48.686;9.170;2023-11-19T10:53:51;16.80;99.90
39621;DHT22;25309;48.686;9.170;2023-11-19T10:56:25;16.60;99.90
39621;DHT22;25309;48.686;9.170;2023-11-19T10:58:56;16.20;99.90
39621;DHT22;25309;48.686;9.170;2023-11-19T11:01:29;16.00;99.90
39621;DHT22;25309;48.686;9.170;2023-11-19T11:04:01;15.80;99.90
39621;DHT22;25309;48.686;9.170;2023-11-19T11:06:29;15.80;99.90
39621;DHT22;25309;48.686;9.170;2023-11-19T11:08:57;16.10;99.90
39621;DHT22;25309;48.686;9.170;2023-11-19T11:11:25;16.10;99.90
39621;DHT22;25309;48.686;9.170;2023-11-19T11:13:56;16.00;99.90
39621;DHT22;25309;48.686;9.170;2023-11-19T11:16:26;15.90;99.90
39621;DHT22;25309;48.686;9.170;2023-11-19T11:18:53;15.80;99.90
39621;DHT22;25309;48.686;9.170;2023-11-19T11:21:24;15.70;99.90
39621;DHT22;25309;48.686;9.170;2023-11-19T11:27:02;15.50;99.90
39621;DHT22;25309;48.686;9.170;2023-11-19T11:29:39;15.30;99.90
39621;DHT22;25309;48.686;9.170;2023-11-19T11:32:16;15.20;99.90
39621;DHT22;25309;48.686;9.170;2023-11-19T11:34:57;15.10;99.90
39621;DHT22;25309;48.686;9.170;2023-11-19T11:37:32;15.10;99.90
39621;DHT22;25309;48.686;9.170;2023-11-19T11:40:01;15.10;99.90
39621;DHT22;25309;48.686;9.170;2023-11-19T11:42:35;15.10;99.90
39621;DHT22;25309;48.686;9.170;2023-11-19T11:45:05;15.00;99.90
39621;DHT22;25309;48.686;9.170;2023-11-19T11:48:16;15.00;99.90
39621;DHT22;25309;48.686;9.170;2023-11-19T11:50:55;15.00;99.90
39621;DHT22;25309;48.686;9.170;2023-11-19T11:53:23;15.10;99.90
39621;DHT22;25309;48.686;9.170;2023-11-19T11:55:58;15.20;99.90
39621;DHT22;25309;48.686;9.170;2023-11-19T11:58:29;15.20;99.90
39621;DHT22;25309;48.686;9.170;2023-11-19T12:01:01;15.20;99.90
39621;DHT22;25309;48.686;9.170;2023-11-19T12:03:29;15.40;99.90
39621;DHT22;25309;48.686;9.170;2023-11-19T12:05:57;15.60;99.90
39621;DHT22;25309;48.686;9.170;2023-11-19T12:08:26;15.90;99.90
39621;DHT22;25309;48.686;9.170;2023-11-19T12:10:54;16.00;99.90
39621;DHT22;25309;48.686;9.170;2023-11-19T12:13:29;16.30;99.90
39621;DHT22;25309;48.686;9.170;2023-11-19T12:16:11;16.40;99.90
39621;DHT22;25309;48.686;9.170;2023-11-19T12:18:39;16.20;99.90
39621;DHT22;25309;48.686;9.170;2023-11-19T12:21:07;16.10;99.90
39621;DHT22;25309;48.686;9.170;2023-11-19T12:23:44;16.00;99.90
39621;DHT22;25309;48.686;9.170;2023-11-19T12:26:31;15.80;99.90
39621;DHT22;25309;48.686;9.170;2023-11-19T12:28:59;15.60;99.90
39621;DHT22;25309;48.686;9.170;2023-11-19T12:31:28;15.60;99.90
39621;DHT22;25309;48.686;9.170;2023-11-19T12:33:55;15.50;99.90
39621;DHT22;25309;48.686;9.170;2023-11-19T12:36:22;15.50;99.90
39621;DHT22;25309;48.686;9.170;2023-11-19T12:38:49;15.50;99.90
39621;DHT22;25309;48.686;9.170;2023-11-19T12:41:17;15.60;99.90
39621;DHT22;25309;48.686;9.170;2023-11-19T12:43:47;15.70;99.90
39621;DHT22;25309;48.686;9.170;2023-11-19T12:46:18;15.60;99.90
39621;DHT22;25309;48.686;9.170;2023-11-19T12:48:50;15.60;99.90
39621;DHT22;25309;48.686;9.170;2023-11-19T12:51:18;15.70;99.90
39621;DHT22;25309;48.686;9.170;2023-11-19T12:53:50;16.00;99.90
39621;DHT22;25309;48.686;9.170;2023-11-19T12:56:19;16.30;99.90
39621;DHT22;25309;48.686;9.170;2023-11-19T12:58:46;16.40;99.90
39621;DHT22;25309;48.686;9.170;2023-11-19T13:01:16;16.30;99.90
39621;DHT22;25309;48.686;9.170;2023-11-19T13:03:45;16.20;99.90
39621;DHT22;25309;48.686;9.170;2023-11-19T13:06:14;16.30;99.90
39621;DHT22;25309;48.686;9.170;2023-11-19T13:08:49;16.40;99.90
39621;DHT22;25309;48.686;9.170;2023-11-19T13:11:30;16.60;99.90
39621;DHT22;25309;48.686;9.170;2023-11-19T13:13:59;16.20;99.90
39621;DHT22;25309;48.686;9.170;2023-11-19T13:16:27;16.10;99.90
39621;DHT22;25309;48.686;9.170;2023-11-19T13:18:54;15.90;99.90
39621;DHT22;25309;48.686;9.170;2023-11-19T13:21:23;15.80;99.90
39621;DHT22;25309;48.686;9.170;2023-11-19T13:23:50;15.80;99.90
39621;DHT22;25309;48.686;9.170;2023-11-19T13:26:17;15.70;99.90
39621;DHT22;25309;48.686;9.170;2023-11-19T13:28:45;15.60;99.90
39621;DHT22;25309;48.686;9.170;2023-11-19T13:31:13;15.60;99.90
39621;DHT22;25309;48.686;9.170;2023-11-19T13:33:40;15.80;99.90
39621;DHT22;25309;48.686;9.170;2023-11-19T13:36:08;16.10;99.90
39621;DHT22;25309;48.686;9.170;2023-11-19T13:38:38;16.40;99.90
39621;DHT22;25309;48.686;9.170;2023-11-19T13:41:07;16.40;99.90
39621;DHT22;25309;48.686;9.170;2023-11-19T13:43:39;16.00;99.90
39621;DHT22;25309;48.686;9.170;2023-11-19T13:46:06;15.80;99.90
39621;DHT22;25309;48.686;9.170;2023-11-19T13:48:33;15.60;99.90
39621;DHT22;25309;48.686;9.170;2023-11-19T13:51:00;15.50;99.90
39621;DHT22;25309;48.686;9.170;2023-11-19T13:53:27;15.50;99.90
39621;DHT22;25309;48.686;9.170;2023-11-19T13:55:55;15.40;99.90
39621;DHT22;25309;48.686;9.170;2023-11-19T13:58:22;15.40;99.90
39621;DHT22;25309;48.686;9.170;2023-11-19T14:00:49;15.50;99.90
39621;DHT22;25309;48.686;9.170;2023-11-19T14:03:17;15.40;99.90
39621;DHT22;25309;48.686;9.170;2023-11-19T14:05:44;15.20;99.90
39621;DHT22;25309;48.686;9.170;2023-11-19T14:08:12;15.30;99.90
39621;DHT22;25309;48.686;9.170;2023-11-19T14:10:51;15.50;99.90
39621;DHT22;25309;48.686;9.170;2023-11-19T14:13:20;15.70;99.90
39621;DHT22;25309;48.686;9.170;2023-11-19T14:15:47;15.90;99.90
39621;DHT22;25309;48.686;9.170;2023-11-19T14:18:16;16.10;99.90
39621;DHT22;25309;48.686;9.170;2023-11-19T14:20:43;16.20;99.90
39621;DHT22;25309;48.686;9.170;2023-11-19T14:23:11;16.30;99.90
39621;DHT22;25309;48.686;9.170;2023-11-19T14:25:38;16.30;99.90
39621;DHT22;25309;48.686;9.170;2023-11-19T14:28:05;16.30;99.90
39621;DHT22;25309;48.686;9.170;2023-11-19T14:30:34;16.10;99.90
39621;DHT22;25309;48.686;9.170;2023-11-19T14:33:01;15.90;99.90
39621;DHT22;25309;48.686;9.170;2023-11-19T14:35:30;15.70;99.90
39621;DHT22;25309;48.686;9.170;2023-11-19T14:37:57;15.60;99.90
39621;DHT22;25309;48.686;9.170;2023-11-19T14:40:24;15.70;99.90
39621;DHT22;25309;48.686;9.170;2023-11-19T14:43:08;15.90;99.90
39621;DHT22;25309;48.686;9.170;2023-11-19T14:45:40;16.00;99.90
39621;DHT22;25309;48.686;9.170;2023-11-19T14:48:15;16.10;99.90
39621;DHT22;25309;48.686;9.170;2023-11-19T14:50:44;15.70;99.90
39621;DHT22;25309;48.686;9.170;2023-11-19T14:53:11;15.50;99.90
39621;DHT22;25309;48.686;9.170;2023-11-19T14:55:38;15.40;99.90
39621;DHT22;25309;48.686;9.170;2023-11-19T14:58:06;15.30;99.90
39621;DHT22;25309;48.686;9.170;2023-11-19T15:00:37;15.30;99.90
39621;DHT22;25309;48.686;9.170;2023-11-19T15:03:06;15.20;99.90
39621;DHT22;25309;48.686;9.170;2023-11-19T15:05:33;15.10;99.90
39621;DHT22;25309;48.686;9.170;2023-11-19T15:08:01;15.00;99.90
39621;DHT22;25309;48.686;9.170;2023-11-19T15:10:29;14.80;99.90
39621;DHT22;25309;48.686;9.170;2023-11-19T15:12:56;14.60;99.90
39621;DHT22;25309;48.686;9.170;2023-11-19T15:15:24;14.50;99.90
39621;DHT22;25309;48.686;9.170;2023-11-19T15:17:54;14.40;99.90
39621;DHT22;25309;48.686;9.170;2023-11-19T15:20:23;14.30;99.90
39621;DHT22;25309;48.686;9.170;2023-11-19T15:22:50;14.20;99.90
39621;DHT22;25309;48.686;9.170;2023-11-19T15:25:17;14.20;99.90
39621;DHT22;25309;48.686;9.170;2023-11-19T15:27:44;14.00;99.90
39621;DHT22;25309;48.686;9.170;2023-11-19T15:30:12;14.00;99.90
39621;DHT22;25309;48.686;9.170;2023-11-19T15:32:39;13.90;99.90
39621;DHT22;25309;48.686;9.170;2023-11-19T15:35:07;13.80;99.90
39621;DHT22;25309;48.686;9.170;2023-11-19T15:37:36;13.60;99.90
39621;DHT22;25309;48.686;9.170;2023-11-19T15:40:07;13.60;99.90
39621;DHT22;25309;48.686;9.170;2023-11-19T15:42:39;13.50;99.90
39621;DHT22;25309;48.686;9.170;2023-11-19T15:45:07;13.50;99.90
39621;DHT22;25309;48.686;9.170;2023-11-19T15:47:34;13.40;99.90